Time;durP1;ratioP1;P1;durP2;ratioP2;P2;SDS_P1;SDS_P2;PMS_P1;PMS_P2;Temp;Humidity;BMP_temperature;BMP_pressure;BME280_temperature;BME280_humidity;BME280_pressure;Samples;Min_cycle;Max_cycle;Signal;HPM_P1;HPM_P2
2022/07/05 00:01:46;;;;;;;5.97;4.07;;;14.40;83.80;;;;;;5047520;28;20401;-46
2022/07/05 00:04:13;;;;;;;8.95;3.58;;;14.40;84.10;;;;;;5047425;28;20044;-45
2022/07/05 00:07:17;;;;;;;8.07;3.22;;;14.30;84.00;;;;;;5048567;28;20426;-45
2022/07/05 00:09:27;;;;;;;6.07;3.50;;;14.40;84.10;;;;;;5048706;28;20029;-45
2022/07/05 00:11:54;;;;;;;4.78;2.92;;;14.40;84.30;;;;;;5048218;28;20033;-46
2022/07/05 00:14:21;;;;;;;5.43;3.35;;;14.40;84.20;;;;;;5048543;28;20033;-45
2022/07/05 00:16:49;;;;;;;7.70;3.33;;;14.40;84.30;;;;;;5047158;28;20061;-47
2022/07/05 00:19:16;;;;;;;5.88;3.60;;;14.40;84.10;;;;;;5048678;28;20064;-44
2022/07/05 00:21:43;;;;;;;5.05;3.53;;;14.40;84.20;;;;;;5048586;28;20029;-45
2022/07/05 00:24:10;;;;;;;5.22;3.42;;;14.40;84.00;;;;;;5048584;28;20464;-47
2022/07/05 00:26:40;;;;;;;6.75;3.35;;;14.40;84.10;;;;;;5048392;28;20033;-44
2022/07/05 00:29:09;;;;;;;6.30;3.10;;;14.40;84.00;;;;;;5048397;28;20025;-45
2022/07/05 00:31:38;;;;;;;5.35;3.45;;;14.40;84.20;;;;;;5047916;28;20028;-44
2022/07/05 00:34:05;;;;;;;5.35;3.45;;;14.40;84.10;;;;;;5047954;28;20351;-45
2022/07/05 00:36:32;;;;;;;6.05;4.10;;;14.40;84.10;;;;;;5051561;28;20032;-46
2022/07/05 00:38:59;;;;;;;6.72;3.63;;;14.30;83.90;;;;;;5052181;28;20029;-46
2022/07/05 00:41:27;;;;;;;6.07;3.58;;;14.20;84.30;;;;;;5051694;28;20120;-44
2022/07/05 00:44:08;;;;;;;5.43;3.80;;;14.20;84.30;;;;;;5051947;28;20043;-47
2022/07/05 00:46:35;;;;;;;7.32;4.10;;;14.10;84.30;;;;;;5051920;28;20044;-44
2022/07/05 00:49:03;;;;;;;5.07;3.47;;;14.10;84.20;;;;;;5052018;28;20033;-45
2022/07/05 00:51:31;;;;;;;7.13;3.63;;;14.00;84.30;;;;;;5034042;28;20033;-44
2022/07/05 00:54:00;;;;;;;5.53;3.70;;;13.90;84.30;;;;;;5051690;28;20342;-45
2022/07/05 00:56:27;;;;;;;7.20;3.80;;;13.90;84.50;;;;;;5052064;28;20032;-44
2022/07/05 00:58:54;;;;;;;6.03;3.60;;;13.90;84.60;;;;;;5052183;28;20083;-46
2022/07/05 01:01:28;;;;;;;6.60;4.25;;;13.80;84.70;;;;;;5051831;28;20031;-45
2022/07/05 01:03:55;;;;;;;6.97;4.50;;;13.70;84.70;;;;;;5051572;28;20021;-44
2022/07/05 01:06:24;;;;;;;7.47;3.92;;;13.70;84.80;;;;;;5051683;28;20024;-44
2022/07/05 01:08:52;;;;;;;7.57;3.67;;;13.70;84.70;;;;;;5051637;28;20036;-44
2022/07/05 01:11:19;;;;;;;7.25;4.07;;;13.70;84.90;;;;;;5051771;28;20530;-44
2022/07/05 01:13:46;;;;;;;6.07;4.28;;;13.60;84.90;;;;;;5050851;28;20363;-44
2022/07/05 01:16:13;;;;;;;6.05;4.10;;;13.60;84.80;;;;;;5051810;28;20102;-44
2022/07/05 01:18:40;;;;;;;5.68;3.65;;;13.60;84.90;;;;;;5051704;28;20032;-44
2022/07/05 01:21:13;;;;;;;5.75;3.90;;;13.50;84.80;;;;;;5051454;28;20082;-44
2022/07/05 01:23:40;;;;;;;5.97;4.00;;;13.50;84.80;;;;;;5050199;28;20033;-44
2022/07/05 01:26:07;;;;;;;6.28;3.78;;;13.50;85.10;;;;;;5051139;28;20040;-45
2022/07/05 01:28:34;;;;;;;7.47;4.10;;;13.50;85.10;;;;;;5048725;28;20025;-46
2022/07/05 01:31:04;;;;;;;4.82;4.32;;;13.50;85.30;;;;;;5050522;28;20077;-44
2022/07/05 01:33:31;;;;;;;;;;;13.50;85.50;;;;;;5051849;28;20099;-44
2022/07/05 01:35:58;;;;;;;6.38;3.75;;;13.50;85.60;;;;;;5049582;28;19916;-44
2022/07/05 01:38:25;;;;;;;10.75;4.18;;;13.50;85.60;;;;;;5050927;28;20032;-45
2022/07/05 01:40:51;;;;;;;5.03;3.58;;;13.60;85.50;;;;;;5038907;28;20047;-45
2022/07/05 01:43:19;;;;;;;4.40;3.60;;;13.60;85.40;;;;;;5050416;28;20033;-44
2022/07/05 01:45:47;;;;;;;7.80;3.70;;;13.70;85.30;;;;;;5049367;28;20045;-44
2022/07/05 01:48:17;;;;;;;8.93;3.55;;;13.70;85.10;;;;;;5049394;28;20031;-44
2022/07/05 01:50:46;;;;;;;6.75;4.03;;;13.70;85.20;;;;;;5050352;28;20074;-45
2022/07/05 01:53:19;;;;;;;6.63;3.53;;;13.80;85.30;;;;;;5050388;28;20347;-46
2022/07/05 01:55:46;;;;;;;6.43;3.50;;;13.80;85.30;;;;;;5050538;28;20032;-45
2022/07/05 01:58:13;;;;;;;8.77;3.63;;;13.80;85.30;;;;;;5050834;28;20372;-46
2022/07/05 02:00:47;;;;;;;6.10;3.92;;;13.80;85.10;;;;;;5050326;28;20035;-44
2022/07/05 02:03:16;;;;;;;5.70;3.83;;;13.90;85.20;;;;;;5049547;28;20029;-44
2022/07/05 02:05:44;;;;;;;5.45;3.83;;;13.80;84.90;;;;;;5049414;28;20029;-45
2022/07/05 02:08:14;;;;;;;6.47;3.45;;;13.90;84.90;;;;;;5049616;28;20033;-45
2022/07/05 02:10:42;;;;;;;5.80;2.65;;;13.90;84.70;;;;;;5050229;28;20025;-45
2022/07/05 02:13:10;;;;;;;9.07;4.53;;;13.90;84.50;;;;;;5050196;28;20025;-44
2022/07/05 02:15:39;;;;;;;6.10;3.50;;;13.80;84.40;;;;;;5050147;28;20067;-46
2022/07/05 02:18:09;;;;;;;7.40;3.42;;;13.80;84.30;;;;;;5050114;28;20462;-46
2022/07/05 02:20:41;;;;;;;8.32;3.28;;;13.80;84.40;;;;;;5049756;28;20033;-44
2022/07/05 02:23:08;;;;;;;6.00;3.42;;;13.80;84.40;;;;;;5050265;28;20041;-43
2022/07/05 02:25:35;;;;;;;4.18;2.28;;;13.80;84.20;;;;;;5048882;28;20033;-45
2022/07/05 02:28:05;;;;;;;4.88;3.13;;;13.80;84.20;;;;;;5049394;28;20110;-45
2022/07/05 02:30:31;;;;;;;;;;;13.80;84.40;;;;;;5050164;28;20040;-47
2022/07/05 02:33:00;;;;;;;5.55;2.92;;;13.90;84.20;;;;;;5049818;28;19913;-44
2022/07/05 02:35:27;;;;;;;5.73;2.77;;;13.90;84.00;;;;;;5049911;28;20017;-45
2022/07/05 02:37:54;;;;;;;5.40;2.40;;;13.90;84.10;;;;;;5049654;28;20279;-45
2022/07/05 02:40:20;;;;;;;4.20;2.10;;;13.90;83.80;;;;;;5048516;28;20438;-44
2022/07/05 02:42:47;;;;;;;4.40;2.78;;;13.90;83.70;;;;;;5049541;28;20056;-44
2022/07/05 02:45:16;;;;;;;4.15;1.90;;;14.00;83.80;;;;;;5049753;28;20025;-50
2022/07/05 02:47:43;;;;;;;4.15;2.20;;;14.00;83.50;;;;;;5048433;28;20024;-45
2022/07/05 02:50:11;;;;;;;4.68;1.98;;;14.10;83.20;;;;;;5048256;28;20112;-45
2022/07/05 02:52:37;;;;;;;5.90;2.45;;;14.10;83.20;;;;;;5049731;28;20025;-44
2022/07/05 02:55:05;;;;;;;5.80;2.25;;;14.10;83.10;;;;;;5048124;28;20025;-46
2022/07/05 02:57:32;;;;;;;6.18;2.45;;;14.20;83.10;;;;;;5048989;28;20110;-44
2022/07/05 02:59:59;;;;;;;5.60;2.33;;;14.20;83.30;;;;;;5048767;28;20057;-44
2022/07/05 03:02:28;;;;;;;3.83;2.10;;;14.20;83.30;;;;;;5048608;28;20677;-43
2022/07/05 03:04:55;;;;;;;7.20;2.92;;;14.20;83.50;;;;;;5049535;28;20032;-43
2022/07/05 03:07:22;;;;;;;6.13;2.42;;;14.20;83.70;;;;;;5049295;28;20338;-44
2022/07/05 03:09:49;;;;;;;6.47;2.58;;;14.20;84.00;;;;;;5048447;28;20386;-43
2022/07/05 03:12:16;;;;;;;5.43;2.80;;;14.20;83.70;;;;;;5048386;28;20281;-44
2022/07/05 03:14:42;;;;;;;3.22;2.38;;;14.20;83.70;;;;;;5049344;28;20025;-44
2022/07/05 03:17:09;;;;;;;4.75;2.33;;;14.20;83.90;;;;;;5047999;28;20108;-44
2022/07/05 03:19:40;;;;;;;5.65;2.28;;;14.20;83.80;;;;;;5049211;28;20032;-44
2022/07/05 03:22:11;;;;;;;5.53;2.63;;;14.20;83.90;;;;;;5049055;28;20370;-43
2022/07/05 03:24:38;;;;;;;4.68;2.40;;;14.10;83.50;;;;;;5048934;28;20075;-43
2022/07/05 03:27:04;;;;;;;7.43;3.08;;;14.10;83.60;;;;;;5047814;28;20370;-43
2022/07/05 03:29:30;;;;;;;5.05;2.78;;;14.20;83.50;;;;;;5048875;28;20025;-43
2022/07/05 03:31:57;;;;;;;3.13;2.45;;;14.10;83.50;;;;;;5048814;28;20032;-44
2022/07/05 03:34:24;;;;;;;7.80;2.95;;;14.20;83.60;;;;;;5047901;28;20063;-44
2022/07/05 03:36:51;;;;;;;5.03;2.70;;;14.10;83.10;;;;;;5048490;28;20029;-45
2022/07/05 03:39:21;;;;;;;6.55;2.42;;;14.10;83.20;;;;;;5048807;28;20072;-45
2022/07/05 03:41:47;;;;;;;;;;;14.10;83.00;;;;;;5048764;28;20060;-44
2022/07/05 03:44:16;;;;;;;6.40;2.92;;;14.10;83.00;;;;;;5048303;28;19908;-43
2022/07/05 03:46:43;;;;;;;3.45;2.28;;;14.00;82.80;;;;;;5047791;28;20037;-43
2022/07/05 03:49:10;;;;;;;10.20;2.85;;;14.00;82.80;;;;;;5048402;28;20025;-44
2022/07/05 03:51:41;;;;;;;9.50;2.97;;;14.00;82.70;;;;;;5047418;28;20052;-44
2022/07/05 03:54:08;;;;;;;5.60;2.58;;;14.00;82.70;;;;;;5047742;28;20036;-43
2022/07/05 03:56:35;;;;;;;6.18;2.70;;;14.00;82.80;;;;;;5048342;28;20042;-43
2022/07/05 03:59:02;;;;;;;5.47;2.92;;;13.90;82.60;;;;;;5048565;28;20104;-44
2022/07/05 04:01:27;;;;;;;4.97;2.72;;;13.90;82.80;;;;;;5048377;28;20028;-45
2022/07/05 04:03:54;;;;;;;9.13;3.17;;;13.90;82.80;;;;;;5048888;28;20094;-45
2022/07/05 04:06:21;;;;;;;5.47;2.50;;;13.90;82.60;;;;;;5048291;28;20029;-44
2022/07/05 04:08:49;;;;;;;4.60;2.55;;;13.90;82.60;;;;;;5049494;28;20025;-44
2022/07/05 04:11:16;;;;;;;6.22;2.47;;;13.90;82.70;;;;;;5052623;28;20040;-43
2022/07/05 04:13:43;;;;;;;4.93;2.75;;;13.80;82.90;;;;;;5051218;28;20021;-44
2022/07/05 04:16:11;;;;;;;6.25;3.03;;;13.80;82.70;;;;;;5051936;28;20052;-44
2022/07/05 04:18:38;;;;;;;5.40;2.45;;;13.80;83.00;;;;;;5051587;28;20044;-44
2022/07/05 04:21:05;;;;;;;6.50;3.15;;;13.70;83.00;;;;;;5052687;28;20565;-43
2022/07/05 04:23:31;;;;;;;4.50;3.13;;;13.70;83.10;;;;;;5052093;28;20070;-43
2022/07/05 04:26:00;;;;;;;5.90;2.95;;;13.80;83.10;;;;;;5052284;28;20120;-43
2022/07/05 04:28:29;;;;;;;3.43;2.47;;;13.90;83.40;;;;;;5051748;28;20049;-48
2022/07/05 04:30:57;;;;;;;5.93;2.60;;;14.00;83.30;;;;;;5052548;28;20301;-43
2022/07/05 04:33:24;;;;;;;5.40;2.60;;;14.20;83.20;;;;;;5052098;28;20449;-44
2022/07/05 04:35:53;;;;;;;8.88;3.05;;;14.30;83.10;;;;;;5052365;28;20052;-44
2022/07/05 04:38:20;;;;;;;6.63;2.83;;;14.40;83.20;;;;;;5051082;28;20032;-44
2022/07/05 04:40:45;;;;;;;4.82;2.45;;;14.50;82.10;;;;;;5051759;28;20050;-44
2022/07/05 04:43:12;;;;;;;6.90;2.88;;;14.60;82.10;;;;;;5051733;28;20502;-44
2022/07/05 04:45:39;;;;;;;4.72;2.05;;;14.60;82.10;;;;;;5052601;28;20104;-45
2022/07/05 04:48:06;;;;;;;5.18;2.38;;;14.70;81.80;;;;;;5050740;28;20041;-44
2022/07/05 04:50:33;;;;;;;4.90;1.95;;;14.70;81.60;;;;;;5050964;28;20174;-44
2022/07/05 04:52:59;;;;;;;5.70;2.67;;;14.60;81.60;;;;;;5052144;28;20043;-44
2022/07/05 04:55:26;;;;;;;4.85;2.38;;;14.60;81.80;;;;;;5051106;28;20036;-44
2022/07/05 04:57:53;;;;;;;4.40;2.60;;;14.60;82.10;;;;;;5050943;28;20040;-44
2022/07/05 05:00:20;;;;;;;5.30;2.10;;;14.60;82.20;;;;;;5051967;28;20350;-44
2022/07/05 05:02:47;;;;;;;6.55;2.22;;;14.70;82.10;;;;;;5051832;28;20029;-45
2022/07/05 05:05:16;;;;;;;4.85;2.42;;;14.90;82.30;;;;;;5051803;28;20032;-44
2022/07/05 05:07:44;;;;;;;5.30;2.67;;;15.10;82.00;;;;;;5051560;28;20520;-43
2022/07/05 05:10:11;;;;;;;4.72;2.10;;;15.20;81.30;;;;;;5050986;28;20120;-44
2022/07/05 05:12:38;;;;;;;4.80;2.35;;;15.30;81.00;;;;;;5050847;28;20017;-44
2022/07/05 05:15:09;;;;;;;4.57;2.00;;;15.40;81.00;;;;;;5050618;28;20603;-44
2022/07/05 05:17:40;;;;;;;4.70;2.42;;;15.40;80.80;;;;;;5051644;28;20033;-45
2022/07/05 05:20:17;;;;;;;7.55;2.38;;;15.50;80.70;;;;;;5050101;28;20032;-45
2022/07/05 05:22:44;;;;;;;3.45;2.45;;;15.60;80.20;;;;;;5051376;28;20470;-45
2022/07/05 05:25:15;;;;;;;5.55;2.17;;;15.60;80.00;;;;;;5050084;28;20447;-44
2022/07/05 05:27:48;;;;;;;3.80;2.00;;;15.60;79.80;;;;;;5051091;28;20095;-45
2022/07/05 05:30:18;;;;;;;7.15;2.00;;;15.70;79.90;;;;;;5050984;28;20036;-45
2022/07/05 05:32:46;;;;;;;5.35;1.77;;;15.90;79.80;;;;;;5050384;28;20044;-44
2022/07/05 05:35:13;;;;;;;3.35;1.73;;;16.00;78.80;;;;;;5050837;28;20078;-45
2022/07/05 05:37:54;;;;;;;3.65;1.65;;;16.10;78.80;;;;;;5050068;28;20039;-45
2022/07/05 05:40:21;;;;;;;5.75;2.10;;;16.20;78.90;;;;;;5050890;28;20028;-45
2022/07/05 05:42:50;;;;;;;6.10;2.08;;;16.10;77.90;;;;;;5049359;28;20056;-45
2022/07/05 05:45:17;;;;;;;3.38;1.70;;;16.00;77.90;;;;;;5050007;28;20182;-45
2022/07/05 05:47:48;;;;;;;5.22;2.33;;;16.10;78.70;;;;;;5050783;28;20044;-45
2022/07/05 05:50:23;;;;;;;4.60;1.80;;;16.10;78.00;;;;;;5050568;28;20029;-46
2022/07/05 05:52:50;;;;;;;2.70;1.52;;;16.10;78.00;;;;;;5048449;28;20116;-45
2022/07/05 05:55:17;;;;;;;3.72;1.90;;;16.10;78.10;;;;;;5050642;28;20037;-45
2022/07/05 05:57:44;;;;;;;5.95;2.67;;;16.10;78.10;;;;;;5050031;28;20044;-45
2022/07/05 06:00:11;;;;;;;4.78;2.30;;;16.00;78.30;;;;;;5049412;28;20039;-44
2022/07/05 06:02:38;;;;;;;7.18;2.13;;;15.90;78.40;;;;;;5050271;28;20059;-45
2022/07/05 06:05:06;;;;;;;5.55;2.20;;;16.00;78.50;;;;;;5049404;28;20057;-44
2022/07/05 06:07:54;;;;;;;6.72;2.08;;;15.90;78.50;;;;;;5050331;28;20035;-46
2022/07/05 06:10:23;;;;;;;5.15;1.90;;;15.90;78.60;;;;;;5049057;28;20083;-45
2022/07/05 06:12:51;;;;;;;3.00;1.73;;;15.90;79.80;;;;;;5050445;28;20025;-44
2022/07/05 06:15:18;;;;;;;4.93;1.80;;;16.00;79.20;;;;;;5050170;28;20024;-45
2022/07/05 06:17:46;;;;;;;5.38;1.85;;;16.10;78.80;;;;;;5050185;28;20020;-47
2022/07/05 06:20:19;;;;;;;3.60;1.95;;;16.20;78.70;;;;;;5048538;28;20091;-46
2022/07/05 06:22:46;;;;;;;6.13;2.67;;;16.30;78.80;;;;;;5049529;28;20364;-47
2022/07/05 06:25:13;;;;;;;4.18;2.17;;;16.30;78.50;;;;;;5049372;28;20063;-45
2022/07/05 06:27:48;;;;;;;4.22;2.00;;;16.40;78.20;;;;;;5050243;28;20040;-44
2022/07/05 06:30:16;;;;;;;6.10;2.00;;;16.50;79.10;;;;;;5049041;28;20643;-45
2022/07/05 06:32:45;;;;;;;8.18;3.05;;;16.60;77.90;;;;;;5049294;28;20072;-45
2022/07/05 06:35:13;;;;;;;10.50;3.40;;;16.60;78.50;;;;;;5050040;28;20473;-45
2022/07/05 06:37:55;;;;;;;5.88;1.98;;;16.70;77.20;;;;;;5065484;28;20035;-45
2022/07/05 06:40:42;;;;;;;4.30;1.90;;;16.80;77.80;;;;;;5049736;28;20025;-45
2022/07/05 06:43:10;;;;;;;4.90;2.22;;;16.80;77.40;;;;;;5049515;28;20543;-46
2022/07/05 06:45:37;;;;;;;5.63;2.05;;;16.90;77.40;;;;;;5048928;28;20041;-45
2022/07/05 06:48:21;;;;;;;4.55;1.70;;;16.80;77.00;;;;;;5049354;28;20029;-46
2022/07/05 06:50:47;;;;;;;3.88;1.88;;;16.90;77.80;;;;;;5048626;28;20476;-45
2022/07/05 06:53:14;;;;;;;6.43;2.50;;;16.90;77.90;;;;;;5048583;28;20025;-46
2022/07/05 06:55:44;;;;;;;6.72;3.20;;;16.90;77.70;;;;;;5049388;28;20191;-45
2022/07/05 06:58:11;;;;;;;5.78;2.25;;;17.10;77.80;;;;;;5049639;28;20013;-45
2022/07/05 07:00:42;;;;;;;4.35;1.67;;;17.40;77.10;;;;;;5049421;28;20461;-46
2022/07/05 07:03:08;;;;;;;6.07;1.77;;;17.40;76.80;;;;;;5049296;28;20478;-44
2022/07/05 07:05:35;;;;;;;9.40;2.60;;;17.50;76.80;;;;;;5049069;28;20049;-45
2022/07/05 07:10:49;;;;;;;6.43;1.95;;;17.90;76.20;;;;;;5049242;28;20515;-45
2022/07/05 07:13:16;;;;;;;4.53;2.20;;;18.00;75.10;;;;;;5049077;28;20054;-45
2022/07/05 07:15:43;;;;;;;3.00;1.27;;;18.10;74.90;;;;;;5048046;28;20270;-45
2022/07/05 07:18:09;;;;;;;6.30;1.50;;;18.10;73.60;;;;;;5048698;28;20040;-46
2022/07/05 07:20:38;;;;;;;4.90;2.05;;;18.20;74.40;;;;;;5048410;28;20074;-45
2022/07/05 07:23:05;;;;;;;5.03;1.33;;;18.40;73.40;;;;;;5048767;28;20075;-45
2022/07/05 07:25:32;;;;;;;4.93;1.45;;;18.30;72.20;;;;;;5048920;28;20343;-45
2022/07/05 07:27:59;;;;;;;2.97;1.15;;;18.20;73.50;;;;;;5049005;28;20114;-45
2022/07/05 07:30:28;;;;;;;2.22;0.80;;;18.20;71.80;;;;;;5046246;28;20036;-46
2022/07/05 07:32:55;;;;;;;4.15;1.05;;;18.40;71.90;;;;;;5046715;28;20115;-45
2022/07/05 07:35:22;;;;;;;2.75;1.00;;;18.80;71.70;;;;;;5048718;28;20036;-45
2022/07/05 07:37:48;;;;;;;4.55;1.30;;;18.90;70.90;;;;;;5048928;28;20549;-45
2022/07/05 07:40:16;;;;;;;4.38;1.40;;;18.90;70.30;;;;;;5048973;28;20028;-47
2022/07/05 07:42:43;;;;;;;4.18;1.17;;;18.90;70.50;;;;;;5048145;28;20057;-45
2022/07/05 07:45:10;;;;;;;4.57;1.10;;;18.90;70.70;;;;;;5048172;28;20392;-46
2022/07/05 07:47:37;;;;;;;5.38;1.00;;;19.00;69.10;;;;;;5048499;28;20029;-45
2022/07/05 07:50:06;;;;;;;5.75;1.35;;;19.20;69.20;;;;;;5048036;28;20031;-46
2022/07/05 07:52:33;;;;;;;9.05;1.95;;;19.40;69.40;;;;;;5046587;28;20025;-47
2022/07/05 07:55:01;;;;;;;6.15;1.05;;;19.50;68.60;;;;;;5047799;28;20035;-45
2022/07/05 07:57:28;;;;;;;3.42;0.90;;;19.60;67.50;;;;;;5048358;28;20345;-46
2022/07/05 07:59:56;;;;;;;3.70;1.10;;;19.70;68.40;;;;;;5047835;28;20037;-45
2022/07/05 08:02:25;;;;;;;5.50;1.15;;;19.80;65.80;;;;;;5047905;28;20087;-45
2022/07/05 08:04:53;;;;;;;3.50;0.77;;;20.40;64.80;;;;;;5047522;28;20028;-46
2022/07/05 08:07:20;;;;;;;5.72;0.95;;;20.70;62.50;;;;;;5047947;28;20032;-45
2022/07/05 08:09:47;;;;;;;5.35;1.05;;;20.60;60.60;;;;;;5047663;28;20028;-45
2022/07/05 08:12:14;;;;;;;3.65;0.90;;;21.30;60.70;;;;;;5047697;28;20157;-45
2022/07/05 08:14:42;;;;;;;6.43;1.17;;;21.40;58.40;;;;;;5047846;28;20098;-47
2022/07/05 08:17:09;;;;;;;5.90;1.63;;;21.10;59.20;;;;;;5047923;28;20063;-45
2022/07/05 08:22:23;;;;;;;4.55;1.25;;;20.70;59.90;;;;;;5048353;28;20142;-47
2022/07/05 08:24:50;;;;;;;8.63;2.30;;;20.80;59.40;;;;;;5046945;28;20063;-45
2022/07/05 08:27:17;;;;;;;3.70;1.17;;;21.00;60.40;;;;;;5048408;28;20025;-45
2022/07/05 08:29:44;;;;;;;4.32;1.65;;;21.50;59.50;;;;;;5048454;28;20086;-45
2022/07/05 08:32:11;;;;;;;3.03;1.20;;;22.20;57.80;;;;;;5047834;28;20457;-46
2022/07/05 08:34:38;;;;;;;3.40;0.95;;;22.50;57.70;;;;;;5048103;28;20447;-46
2022/07/05 08:37:06;;;;;;;6.03;2.72;;;22.40;56.90;;;;;;5048302;28;20478;-48
2022/07/05 08:39:34;;;;;;;5.88;1.77;;;22.10;55.30;;;;;;5046989;28;20154;-45
2022/07/05 08:42:01;;;;;;;3.28;0.77;;;21.50;57.50;;;;;;5047884;28;20061;-46
2022/07/05 08:44:38;;;;;;;5.68;0.82;;;21.30;57.60;;;;;;5046493;28;20029;-46
2022/07/05 08:47:10;;;;;;;3.08;1.15;;;21.40;57.30;;;;;;5048209;28;20687;-45
2022/07/05 08:49:40;;;;;;;4.40;0.88;;;20.90;57.20;;;;;;5047031;28;20032;-47
2022/07/05 08:52:12;;;;;;;2.47;0.80;;;21.20;58.50;;;;;;5048014;28;20032;-45
2022/07/05 08:54:42;;;;;;;4.88;1.75;;;21.30;56.10;;;;;;5047461;28;20032;-46
2022/07/05 08:57:09;;;;;;;5.13;1.38;;;21.90;57.20;;;;;;5050936;28;20032;-46
2022/07/05 08:59:36;;;;;;;3.65;0.75;;;22.30;55.40;;;;;;5051815;28;20025;-47
2022/07/05 09:02:03;;;;;;;3.28;1.02;;;22.50;54.50;;;;;;5050293;28;20358;-46
2022/07/05 09:04:33;;;;;;;4.70;1.05;;;22.10;56.50;;;;;;5051554;28;20039;-45
2022/07/05 09:07:04;;;;;;;3.65;0.73;;;21.70;57.70;;;;;;5051123;28;20458;-45
2022/07/05 09:09:33;;;;;;;3.22;0.85;;;21.20;58.50;;;;;;5031704;28;20128;-45
2022/07/05 09:12:00;;;;;;;3.83;0.90;;;21.00;60.60;;;;;;5031581;28;20114;-46
2022/07/05 09:14:27;;;;;;;2.40;0.77;;;21.30;61.20;;;;;;5049931;28;20029;-45
2022/07/05 09:16:55;;;;;;;2.15;0.50;;;21.40;60.40;;;;;;5051148;28;20529;-47
2022/07/05 09:19:22;;;;;;;4.10;0.70;;;21.80;60.10;;;;;;5051529;28;20029;-47
2022/07/05 09:22:08;;;;;;;3.75;0.80;;;22.60;61.30;;;;;;5051583;28;20052;-46
2022/07/05 09:24:47;;;;;;;4.88;0.73;;;23.40;56.30;;;;;;5051094;28;20029;-46
2022/07/05 09:27:14;;;;;;;2.33;0.68;;;24.00;51.80;;;;;;5050862;28;20079;-50
2022/07/05 09:29:54;;;;;;;4.65;0.73;;;24.10;50.80;;;;;;5050674;28;20024;-46
2022/07/05 09:32:25;;;;;;;3.92;1.17;;;23.60;51.20;;;;;;5050087;28;20025;-46
2022/07/05 09:34:52;;;;;;;3.50;0.70;;;22.90;52.30;;;;;;5050277;28;20025;-50
2022/07/05 09:37:18;;;;;;;2.53;0.80;;;22.40;53.70;;;;;;5049366;28;20032;-46
2022/07/05 09:39:45;;;;;;;3.88;0.80;;;21.90;54.20;;;;;;5050197;28;20037;-45
2022/07/05 09:42:30;;;;;;;2.78;0.50;;;21.60;56.40;;;;;;5049371;28;20055;-46
2022/07/05 09:45:00;;;;;;;3.67;0.90;;;21.20;56.70;;;;;;5050529;28;20040;-48
2022/07/05 09:47:32;;;;;;;2.88;0.60;;;20.80;56.40;;;;;;5050908;28;20037;-47
2022/07/05 09:50:04;;;;;;;4.07;0.63;;;20.40;58.20;;;;;;5050751;28;20033;-45
2022/07/05 09:52:35;;;;;;;2.90;0.60;;;20.30;58.80;;;;;;5050564;28;20806;-45
2022/07/05 09:55:08;;;;;;;3.70;0.65;;;20.10;58.60;;;;;;5050349;28;20112;-45
2022/07/05 09:57:46;;;;;;;5.45;0.80;;;20.10;59.10;;;;;;5050275;28;20063;-45
2022/07/05 10:00:25;;;;;;;2.25;0.60;;;20.10;60.50;;;;;;5049233;28;20048;-45
2022/07/05 10:03:01;;;;;;;1.63;0.60;;;19.80;58.00;;;;;;5050113;28;20040;-47
2022/07/05 10:05:30;;;;;;;2.97;0.75;;;19.80;58.30;;;;;;5050241;28;20267;-45
2022/07/05 10:08:00;;;;;;;4.95;0.82;;;20.40;60.80;;;;;;5049789;28;20504;-46
2022/07/05 10:10:29;;;;;;;4.32;0.75;;;21.20;59.30;;;;;;5049197;28;20037;-45
2022/07/05 10:13:05;;;;;;;4.13;0.68;;;22.30;57.80;;;;;;5049013;28;20112;-46
2022/07/05 10:15:36;;;;;;;2.72;0.70;;;22.80;53.60;;;;;;5050354;28;20036;-47
2022/07/05 10:18:22;;;;;;;3.40;0.85;;;21.90;50.50;;;;;;5050156;28;20350;-45
2022/07/05 10:20:51;;;;;;;3.67;0.80;;;21.40;53.10;;;;;;5050138;28;20028;-45
2022/07/05 10:23:19;;;;;;;4.82;1.10;;;20.90;55.10;;;;;;5049825;28;20032;-45
2022/07/05 10:25:49;;;;;;;3.38;0.93;;;20.40;56.40;;;;;;5049994;28;20373;-46
2022/07/05 10:28:16;;;;;;;1.90;0.80;;;20.00;57.90;;;;;;5049320;28;20032;-46
2022/07/05 10:30:49;;;;;;;4.63;1.17;;;19.70;59.90;;;;;;5049623;28;20033;-47
2022/07/05 10:33:20;;;;;;;6.78;0.93;;;19.40;60.40;;;;;;5049948;28;20025;-45
2022/07/05 10:35:47;;;;;;;2.72;0.80;;;19.30;61.50;;;;;;5049125;28;20033;-46
2022/07/05 10:38:15;;;;;;;8.45;1.27;;;18.90;62.40;;;;;;5050046;28;20039;-45
2022/07/05 10:40:47;;;;;;;2.95;0.70;;;18.70;63.20;;;;;;5048666;28;20056;-45
2022/07/05 10:43:15;;;;;;;2.42;0.70;;;18.60;63.00;;;;;;5048212;28;20060;-45
2022/07/05 10:45:54;;;;;;;2.83;0.60;;;18.40;62.40;;;;;;5049466;28;20098;-44
2022/07/05 10:48:40;;;;;;;3.33;0.87;;;18.40;63.70;;;;;;5048652;28;20102;-46
2022/07/05 10:51:24;;;;;;;4.07;0.95;;;18.30;63.60;;;;;;5049548;28;20073;-46
2022/07/05 10:54:11;;;;;;;4.15;1.17;;;18.20;64.30;;;;;;5049631;28;20033;-47
2022/07/05 10:56:39;;;;;;;2.50;0.77;;;18.00;65.20;;;;;;5049628;28;20029;-45
2022/07/05 10:59:12;;;;;;;4.32;0.77;;;17.90;66.60;;;;;;5048534;28;20044;-47
2022/07/05 11:01:41;;;;;;;4.35;0.93;;;17.90;67.90;;;;;;5049504;28;20054;-47
2022/07/05 11:04:27;;;;;;;5.93;0.93;;;17.90;69.60;;;;;;5048485;28;20033;-45
2022/07/05 11:06:52;;;;;;;6.47;1.17;;;17.90;71.10;;;;;;5049248;28;20122;-45
2022/07/05 11:09:20;;;;;;;5.82;1.15;;;18.00;72.60;;;;;;5049565;28;20099;-45
2022/07/05 11:11:52;;;;;;;4.93;1.13;;;18.00;71.90;;;;;;5049498;28;20053;-45
2022/07/05 11:14:21;;;;;;;5.88;1.10;;;18.00;71.20;;;;;;5048339;28;20045;-45
2022/07/05 11:17:11;;;;;;;2.47;1.00;;;18.10;71.90;;;;;;5049690;28;20025;-48
2022/07/05 11:20:14;;;;;;;1.80;0.70;;;18.10;71.20;;;;;;5036279;28;20120;-45
2022/07/05 11:23:03;;;;;;;4.07;1.13;;;18.20;70.50;;;;;;5048352;28;20442;-47
2022/07/05 11:25:31;;;;;;;5.35;0.80;;;18.70;68.20;;;;;;5048911;28;20037;-48
2022/07/05 11:28:08;;;;;;;2.63;1.08;;;19.40;67.80;;;;;;5049190;28;20037;-45
2022/07/05 11:31:01;;;;;;;3.17;0.98;;;20.10;64.70;;;;;;5048421;28;20458;-45
2022/07/05 11:33:45;;;;;;;4.35;1.05;;;20.70;60.00;;;;;;5047003;28;20090;-48
2022/07/05 11:36:26;;;;;;;3.05;0.55;;;21.50;58.10;;;;;;5048100;28;20029;-46
2022/07/05 11:39:20;;;;;;;2.55;0.77;;;22.30;54.80;;;;;;5048970;28;20021;-49
2022/07/05 11:41:48;;;;;;;3.33;0.85;;;22.60;53.60;;;;;;5048768;28;20102;-48
2022/07/05 11:44:20;;;;;;;2.80;0.60;;;22.60;54.00;;;;;;5048554;28;20468;-48
2022/07/05 11:46:49;;;;;;;3.17;0.70;;;22.40;53.40;;;;;;5048531;28;20029;-45
2022/07/05 11:49:23;;;;;;;5.00;1.48;;;21.90;55.20;;;;;;5048109;28;20029;-45
2022/07/05 11:52:03;;;;;;;5.90;1.35;;;21.40;58.20;;;;;;5049283;28;20028;-48
2022/07/05 11:54:32;;;;;;;3.80;0.68;;;20.60;60.50;;;;;;5048410;28;20024;-47
2022/07/05 11:57:00;;;;;;;5.00;0.85;;;20.50;61.80;;;;;;5048501;28;20384;-46
2022/07/05 11:59:27;;;;;;;3.47;0.63;;;20.40;62.60;;;;;;5047454;28;20048;-46
2022/07/05 12:01:55;;;;;;;3.42;0.82;;;20.40;63.30;;;;;;5048399;28;20033;-49
2022/07/05 12:04:22;;;;;;;3.80;0.98;;;20.40;62.10;;;;;;5047827;28;20029;-46
2022/07/05 12:06:50;;;;;;;4.95;0.88;;;20.30;63.40;;;;;;5047513;28;20377;-46
2022/07/05 12:09:25;;;;;;;5.07;1.10;;;20.40;64.70;;;;;;5048315;28;20021;-47
2022/07/05 12:14:49;;;;;;;3.15;1.13;;;20.30;65.10;;;;;;5034779;28;20082;-45
2022/07/05 12:17:18;;;;;;;7.25;1.60;;;19.90;64.90;;;;;;5047319;28;20474;-44
2022/07/05 12:19:46;;;;;;;3.42;0.80;;;19.50;64.50;;;;;;5047858;28;20029;-45
2022/07/05 12:22:12;;;;;;;5.05;0.90;;;19.30;67.40;;;;;;5048349;28;20068;-45
2022/07/05 12:24:40;;;;;;;4.97;0.98;;;19.20;69.00;;;;;;5048521;28;20485;-45
2022/07/05 12:27:11;;;;;;;4.40;1.10;;;18.80;68.20;;;;;;5048309;28;20056;-45
2022/07/05 12:29:39;;;;;;;4.85;1.20;;;18.60;70.30;;;;;;5048593;28;20028;-47
2022/07/05 12:32:08;;;;;;;4.63;0.90;;;18.30;71.60;;;;;;5051002;28;20487;-46
2022/07/05 12:34:37;;;;;;;;;;;18.10;73.20;;;;;;5052696;28;20033;-46
2022/07/05 12:37:05;;;;;;;7.70;1.17;;;17.90;73.60;;;;;;5052421;28;19908;-46
2022/07/05 12:39:34;;;;;;;4.65;1.13;;;17.70;74.90;;;;;;5052318;28;20358;-46
2022/07/05 12:42:01;;;;;;;6.80;1.17;;;17.80;75.30;;;;;;5050979;28;20076;-45
2022/07/05 12:44:28;;;;;;;5.57;0.98;;;17.50;75.30;;;;;;5051887;28;20282;-45
2022/07/05 12:47:05;;;;;;;2.78;0.90;;;17.50;75.60;;;;;;5051941;28;20032;-45
2022/07/05 12:49:51;;;;;;;3.35;1.05;;;17.40;77.60;;;;;;5051814;28;20021;-44
2022/07/05 12:52:18;;;;;;;4.57;1.13;;;17.40;79.70;;;;;;5051761;28;20084;-44
2022/07/05 12:58:09;;;;;;;5.35;0.95;;;17.30;79.10;;;;;;5031669;28;20343;-45
2022/07/05 13:00:40;;;;;;;6.60;1.48;;;17.50;77.90;;;;;;5031967;28;20034;-45
2022/07/05 13:03:07;;;;;;;6.82;1.10;;;18.00;77.50;;;;;;5031415;28;20037;-46
2022/07/05 13:05:37;;;;;;;7.05;0.93;;;18.10;74.00;;;;;;5032003;28;20025;-45
2022/07/05 13:08:04;;;;;;;2.95;0.90;;;18.40;73.50;;;;;;5040460;28;20483;-45
2022/07/05 13:10:34;;;;;;;6.22;1.10;;;18.50;70.90;;;;;;5050798;28;20022;-45
2022/07/05 13:13:02;;;;;;;4.45;1.00;;;18.60;69.70;;;;;;5050623;28;20160;-45